Time;durP1;ratioP1;P1;durP2;ratioP2;P2;SDS_P1;SDS_P2;PMS_P1;PMS_P2;Temp;Humidity;BMP_temperature;BMP_pressure;BME280_temperature;BME280_humidity;BME280_pressure;Samples;Min_cycle;Max_cycle;Signal;HPM_P1;HPM_P2
2022/03/31 00:01:23;;;;;;;3.60;2.30;;;;;;;;;;6113730;29;20255;-79
2022/03/31 00:04:44;;;;;;;3.83;2.40;;;;;;;;;;6104408;29;20227;-79
2022/03/31 00:08:07;;;;;;;2.43;2.33;;;;;;;;;;6114595;29;20227;-78
2022/03/31 00:11:30;;;;;;;2.50;2.30;;;;;;;;;;6108753;29;20231;-79
2022/03/31 00:14:51;;;;;;;4.27;2.53;;;;;;;;;;6104467;29;20235;-79
2022/03/31 00:18:13;;;;;;;2.07;1.93;;;;;;;;;;6106612;29;20235;-78
2022/03/31 00:21:36;;;;;;;4.17;2.53;;;;;;;;;;6085483;29;20302;-78
2022/03/31 00:24:57;;;;;;;2.63;2.40;;;;;;;;;;6105102;29;20231;-80
2022/03/31 00:28:20;;;;;;;4.47;2.87;;;;;;;;;;6102624;29;20233;-77
2022/03/31 00:31:42;;;;;;;3.93;3.03;;;;;;;;;;6103420;29;20232;-77
2022/03/31 00:35:04;;;;;;;4.13;3.00;;;;;;;;;;6101874;29;20255;-78
2022/03/31 00:38:25;;;;;;;4.63;3.27;;;;;;;;;;6089846;29;23037;-78
2022/03/31 00:41:46;;;;;;;4.10;2.60;;;;;;;;;;6101411;29;20240;-77
2022/03/31 00:45:13;;;;;;;2.67;2.47;;;;;;;;;;6108102;29;20248;-78
2022/03/31 00:48:35;;;;;;;3.63;3.17;;;;;;;;;;6112909;29;20544;-78
2022/03/31 00:51:56;;;;;;;3.10;2.80;;;;;;;;;;6108505;29;20318;-80
2022/03/31 00:55:18;;;;;;;3.03;2.83;;;;;;;;;;6112030;29;20228;-79
2022/03/31 00:58:40;;;;;;;4.23;3.53;;;;;;;;;;6102472;29;20678;-79
2022/03/31 01:02:03;;;;;;;3.40;3.03;;;;;;;;;;6111867;29;20228;-78
2022/03/31 01:05:23;;;;;;;3.73;3.47;;;;;;;;;;6110157;29;20602;-79
2022/03/31 01:08:45;;;;;;;4.77;3.30;;;;;;;;;;6107408;29;20236;-78
2022/03/31 01:12:07;;;;;;;3.70;3.40;;;;;;;;;;6107518;29;20232;-78
2022/03/31 01:15:28;;;;;;;4.83;4.43;;;;;;;;;;6108957;29;20236;-78
2022/03/31 01:18:53;;;;;;;3.73;3.40;;;;;;;;;;6112436;29;20244;-79
2022/03/31 01:22:14;;;;;;;4.90;3.57;;;;;;;;;;6112183;29;20239;-79
2022/03/31 01:25:38;;;;;;;6.20;4.43;;;;;;;;;;6095397;29;21559;-78
2022/03/31 01:28:59;;;;;;;3.60;3.37;;;;;;;;;;6111940;29;20236;-79
2022/03/31 01:32:20;;;;;;;6.03;4.33;;;;;;;;;;6110475;29;20236;-77
2022/03/31 01:35:42;;;;;;;4.70;4.07;;;;;;;;;;6102958;29;20335;-79
2022/03/31 01:39:03;;;;;;;3.80;3.50;;;;;;;;;;6112132;29;20244;-79
2022/03/31 01:42:25;;;;;;;4.33;3.93;;;;;;;;;;6104160;29;20314;-78
2022/03/31 01:45:46;;;;;;;4.67;4.17;;;;;;;;;;6108906;29;20224;-77
2022/03/31 01:49:07;;;;;;;4.00;3.60;;;;;;;;;;6100944;29;20236;-77
2022/03/31 01:52:28;;;;;;;4.20;3.90;;;;;;;;;;6111647;29;20232;-77
2022/03/31 01:55:49;;;;;;;8.00;5.13;;;;;;;;;;6111489;29;20228;-78
2022/03/31 01:59:12;;;;;;;5.40;4.73;;;;;;;;;;6108465;29;20240;-79
2022/03/31 02:02:33;;;;;;;6.33;4.90;;;;;;;;;;6111044;29;20249;-78
2022/03/31 02:05:54;;;;;;;5.27;4.87;;;;;;;;;;6111209;29;20232;-78
2022/03/31 02:09:14;;;;;;;5.47;3.70;;;;;;;;;;6113966;29;20232;-77
2022/03/31 02:12:35;;;;;;;5.00;4.27;;;;;;;;;;6113655;29;20247;-78
2022/03/31 02:15:58;;;;;;;7.03;4.17;;;;;;;;;;6107261;29;20842;-78
2022/03/31 02:19:19;;;;;;;5.57;4.77;;;;;;;;;;6110580;29;20239;-76
2022/03/31 02:22:43;;;;;;;5.77;4.10;;;;;;;;;;6109453;29;20237;-78
2022/03/31 02:26:04;;;;;;;4.87;4.33;;;;;;;;;;6115423;29;20236;-77
2022/03/31 02:29:25;;;;;;;4.97;4.10;;;;;;;;;;6109821;29;20507;-77
2022/03/31 02:32:47;;;;;;;4.37;3.73;;;;;;;;;;6113312;29;20232;-78
2022/03/31 02:36:08;;;;;;;5.13;4.20;;;;;;;;;;6113644;29;20232;-78
2022/03/31 02:39:30;;;;;;;7.67;4.80;;;;;;;;;;6100438;29;20263;-78
2022/03/31 02:42:51;;;;;;;4.90;4.53;;;;;;;;;;6112430;29;20267;-78
2022/03/31 02:46:12;;;;;;;5.10;4.60;;;;;;;;;;6108019;29;20232;-79
2022/03/31 02:49:34;;;;;;;7.87;4.53;;;;;;;;;;6102930;29;20275;-78
2022/03/31 02:56:33;;;;;;;5.00;4.60;;;;;;;;;;6110300;29;20386;-76
2022/03/31 02:59:54;;;;;;;8.40;5.50;;;;;;;;;;6109740;29;20232;-77
2022/03/31 03:03:15;;;;;;;6.77;5.20;;;;;;;;;;6113642;29;20223;-78
2022/03/31 03:06:38;;;;;;;5.57;5.07;;;;;;;;;;6108907;29;20251;-78
2022/03/31 03:09:59;;;;;;;5.53;5.13;;;;;;;;;;6112984;29;20765;-77
2022/03/31 03:13:20;;;;;;;6.20;5.70;;;;;;;;;;6102417;29;20689;-77
2022/03/31 03:16:42;;;;;;;5.77;5.27;;;;;;;;;;6092614;29;20701;-78
2022/03/31 03:20:02;;;;;;;5.63;5.23;;;;;;;;;;6110880;29;20517;-77
2022/03/31 03:23:25;;;;;;;5.80;5.27;;;;;;;;;;6090415;29;20261;-78
2022/03/31 03:26:46;;;;;;;7.63;6.87;;;;;;;;;;6109937;29;20232;-77
2022/03/31 03:30:09;;;;;;;6.67;5.23;;;;;;;;;;6111424;29;20228;-79
2022/03/31 03:33:32;;;;;;;5.87;5.20;;;;;;;;;;6109855;29;20227;-78
2022/03/31 03:36:53;;;;;;;6.13;5.63;;;;;;;;;;6109498;29;20236;-79
2022/03/31 03:40:20;;;;;;;6.67;6.17;;;;;;;;;;6103606;29;20227;-79
2022/03/31 03:43:43;;;;;;;11.47;7.03;;;;;;;;;;6110063;29;20253;-79
2022/03/31 03:47:05;;;;;;;6.47;5.87;;;;;;;;;;6110280;29;20228;-80
2022/03/31 03:50:28;;;;;;;6.27;5.80;;;;;;;;;;6113123;29;20236;-79
2022/03/31 03:53:49;;;;;;;6.33;5.73;;;;;;;;;;6111211;29;20227;-78
2022/03/31 03:57:11;;;;;;;5.70;5.30;;;;;;;;;;6112168;29;20223;-80
2022/03/31 04:00:32;;;;;;;6.70;6.10;;;;;;;;;;6098224;29;20245;-79
2022/03/31 04:03:53;;;;;;;8.13;7.23;;;;;;;;;;6097111;29;20233;-78
2022/03/31 04:07:14;;;;;;;8.90;8.20;;;;;;;;;;6114193;29;20247;-80
2022/03/31 04:10:36;;;;;;;9.47;8.60;;;;;;;;;;6108871;29;20240;-79
2022/03/31 04:13:58;;;;;;;8.37;7.70;;;;;;;;;;6116430;29;20235;-79
2022/03/31 04:17:19;;;;;;;7.90;7.27;;;;;;;;;;6113565;29;20331;-80
2022/03/31 04:20:41;;;;;;;5.80;5.30;;;;;;;;;;6104627;29;20236;-79
2022/03/31 04:24:02;;;;;;;7.30;6.57;;;;;;;;;;6112115;29;20232;-80
2022/03/31 04:27:23;;;;;;;6.67;6.17;;;;;;;;;;6113704;29;20223;-79
2022/03/31 04:30:46;;;;;;;7.10;6.33;;;;;;;;;;6099662;29;21047;-80
2022/03/31 04:34:08;;;;;;;6.13;5.63;;;;;;;;;;6114940;29;20505;-79
2022/03/31 04:37:29;;;;;;;6.27;5.77;;;;;;;;;;6103352;29;20334;-80
2022/03/31 04:40:50;;;;;;;5.60;5.10;;;;;;;;;;6100739;29;20232;-79
2022/03/31 04:44:11;;;;;;;6.13;5.63;;;;;;;;;;6114591;29;20227;-79
2022/03/31 04:47:33;;;;;;;7.37;6.67;;;;;;;;;;6115006;29;20646;-80
2022/03/31 04:50:54;;;;;;;7.07;6.47;;;;;;;;;;6113148;29;20239;-81
2022/03/31 04:54:18;;;;;;;5.80;5.40;;;;;;;;;;6117570;29;20295;-79
2022/03/31 04:57:39;;;;;;;5.63;5.23;;;;;;;;;;6115368;29;20228;-79
2022/03/31 05:01:01;;;;;;;6.27;5.77;;;;;;;;;;6113888;29;20243;-79
2022/03/31 05:04:23;;;;;;;5.30;4.90;;;;;;;;;;6104893;29;20236;-79
2022/03/31 05:07:44;;;;;;;5.73;5.30;;;;;;;;;;6113274;29;20254;-79
2022/03/31 05:11:06;;;;;;;6.63;6.13;;;;;;;;;;6087733;29;20235;-79
2022/03/31 05:14:27;;;;;;;5.87;5.47;;;;;;;;;;6112630;29;20235;-81
2022/03/31 05:17:48;;;;;;;5.63;5.13;;;;;;;;;;6112814;29;21003;-80
2022/03/31 05:21:14;;;;;;;5.93;5.43;;;;;;;;;;6113179;29;20757;-78
2022/03/31 05:24:35;;;;;;;6.03;5.53;;;;;;;;;;6114659;29;20231;-81
2022/03/31 05:27:58;;;;;;;5.77;5.27;;;;;;;;;;6111733;29;20227;-80
2022/03/31 05:31:19;;;;;;;5.43;4.93;;;;;;;;;;6105574;29;20251;-81
2022/03/31 05:34:40;;;;;;;5.80;5.23;;;;;;;;;;6118414;29;20224;-80
2022/03/31 05:38:03;;;;;;;6.00;5.50;;;;;;;;;;6113133;29;20526;-80
2022/03/31 05:41:24;;;;;;;6.53;5.73;;;;;;;;;;6108405;29;20228;-78
2022/03/31 05:44:46;;;;;;;6.43;5.57;;;;;;;;;;6106606;29;20315;-80
2022/03/31 05:48:08;;;;;;;4.70;4.33;;;;;;;;;;6102796;29;20228;-75
2022/03/31 05:51:28;;;;;;;5.43;4.93;;;;;;;;;;6108598;29;20236;-74
2022/03/31 05:54:51;;;;;;;6.63;5.57;;;;;;;;;;6101042;29;20228;-75
2022/03/31 05:58:12;;;;;;;5.70;4.70;;;;;;;;;;6106420;29;21011;-72
2022/03/31 06:01:33;;;;;;;5.43;4.93;;;;;;;;;;6108631;29;20236;-74
2022/03/31 06:04:54;;;;;;;5.73;5.23;;;;;;;;;;6088897;29;20239;-73
2022/03/31 06:08:15;;;;;;;5.07;4.67;;;;;;;;;;6114788;29;20345;-78
2022/03/31 06:11:38;;;;;;;5.33;4.90;;;;;;;;;;6104618;29;20267;-73
2022/03/31 06:14:59;;;;;;;5.07;4.57;;;;;;;;;;6106940;29;20235;-73
2022/03/31 06:18:20;;;;;;;5.23;4.70;;;;;;;;;;6109311;29;20314;-73
2022/03/31 06:21:41;;;;;;;4.50;4.10;;;;;;;;;;6109425;29;20227;-72
2022/03/31 06:25:02;;;;;;;5.13;4.40;;;;;;;;;;6108920;29;20232;-72
2022/03/31 06:28:28;;;;;;;5.37;4.97;;;;;;;;;;6108782;29;20338;-74
2022/03/31 06:31:50;;;;;;;6.20;5.70;;;;;;;;;;6094148;29;20228;-74
2022/03/31 06:35:14;;;;;;;5.03;4.53;;;;;;;;;;6105581;29;20236;-73
2022/03/31 06:38:35;;;;;;;4.87;4.47;;;;;;;;;;6103247;29;20250;-75
2022/03/31 06:41:57;;;;;;;5.07;4.50;;;;;;;;;;6106100;29;20240;-78
2022/03/31 06:45:19;;;;;;;5.13;4.63;;;;;;;;;;6107446;29;20263;-73
2022/03/31 06:48:42;;;;;;;4.60;4.20;;;;;;;;;;6105475;29;20322;-73
2022/03/31 06:52:04;;;;;;;4.33;3.93;;;;;;;;;;6109483;28;20283;-73
2022/03/31 06:55:26;;;;;;;4.20;3.80;;;;;;;;;;6111832;29;20339;-74
2022/03/31 06:58:47;;;;;;;5.47;4.20;;;;;;;;;;6113429;29;20251;-74
2022/03/31 07:02:09;;;;;;;3.60;3.30;;;;;;;;;;6106184;29;20224;-72
2022/03/31 07:05:30;;;;;;;5.13;4.43;;;;;;;;;;6105725;29;20228;-77
2022/03/31 07:08:51;;;;;;;4.83;4.30;;;;;;;;;;6105601;29;20343;-73
2022/03/31 07:12:12;;;;;;;4.97;3.83;;;;;;;;;;6105620;29;20228;-72
2022/03/31 07:15:34;;;;;;;4.23;3.83;;;;;;;;;;6102454;29;20244;-75
2022/03/31 07:18:56;;;;;;;4.33;4.03;;;;;;;;;;6096991;29;20236;-71
2022/03/31 07:22:18;;;;;;;4.50;4.10;;;;;;;;;;6098314;29;20224;-72
2022/03/31 07:25:39;;;;;;;6.27;4.73;;;;;;;;;;6099099;29;20239;-71
2022/03/31 07:28:59;;;;;;;5.20;4.80;;;;;;;;;;6099696;29;20847;-73
2022/03/31 07:32:20;;;;;;;5.43;4.63;;;;;;;;;;6098142;29;20273;-76
2022/03/31 07:35:44;;;;;;;4.80;4.30;;;;;;;;;;6095698;29;20236;-75
2022/03/31 07:39:05;;;;;;;4.93;4.43;;;;;;;;;;6096425;29;20263;-73
2022/03/31 07:42:26;;;;;;;4.70;4.30;;;;;;;;;;6095209;29;20271;-71
2022/03/31 07:45:47;;;;;;;4.37;3.80;;;;;;;;;;6096200;29;21593;-75
2022/03/31 07:49:08;;;;;;;6.37;5.77;;;;;;;;;;6098828;29;20597;-74
2022/03/31 07:52:31;;;;;;;6.40;5.83;;;;;;;;;;6104811;29;20240;-74
2022/03/31 07:55:52;;;;;;;4.87;4.03;;;;;;;;;;6101893;29;20259;-70
2022/03/31 07:59:12;;;;;;;4.13;3.80;;;;;;;;;;6101606;29;20228;-73
2022/03/31 08:02:33;;;;;;;5.47;4.20;;;;;;;;;;6094806;29;20811;-73
2022/03/31 08:05:54;;;;;;;6.47;4.53;;;;;;;;;;6101038;29;20255;-76
2022/03/31 08:09:20;;;;;;;4.23;3.87;;;;;;;;;;6098690;29;20623;-74
2022/03/31 08:12:42;;;;;;;6.80;5.77;;;;;;;;;;6100774;29;20243;-71
2022/03/31 08:16:04;;;;;;;5.33;4.33;;;;;;;;;;6104810;29;20224;-73
2022/03/31 08:19:25;;;;;;;4.10;3.77;;;;;;;;;;6097990;29;20536;-71
2022/03/31 08:22:46;;;;;;;4.07;3.70;;;;;;;;;;6101167;29;20330;-71
2022/03/31 08:26:08;;;;;;;4.10;3.70;;;;;;;;;;6101294;29;20235;-69
2022/03/31 08:29:29;;;;;;;5.33;4.30;;;;;;;;;;6099309;29;20239;-73
2022/03/31 08:32:50;;;;;;;5.23;3.53;;;;;;;;;;6097761;29;20248;-72
2022/03/31 08:36:11;;;;;;;5.33;3.90;;;;;;;;;;6101102;29;20251;-75
2022/03/31 08:39:32;;;;;;;3.87;3.53;;;;;;;;;;6106082;29;20236;-75
2022/03/31 08:42:55;;;;;;;4.37;3.97;;;;;;;;;;6107897;29;20239;-74
2022/03/31 08:46:16;;;;;;;5.03;3.80;;;;;;;;;;6098556;29;20236;-75
2022/03/31 08:49:38;;;;;;;4.57;3.63;;;;;;;;;;6102162;29;20317;-73
2022/03/31 08:52:58;;;;;;;6.70;4.93;;;;;;;;;;6101406;29;20326;-74
2022/03/31 08:56:19;;;;;;;5.63;4.33;;;;;;;;;;6096035;29;20239;-74
2022/03/31 08:59:41;;;;;;;4.53;4.13;;;;;;;;;;6105498;29;20610;-71
2022/03/31 09:03:03;;;;;;;6.60;5.97;;;;;;;;;;6104435;29;20235;-73
2022/03/31 09:06:27;;;;;;;6.93;5.27;;;;;;;;;;6101081;29;20227;-71
2022/03/31 09:09:51;;;;;;;4.73;4.10;;;;;;;;;;6105403;29;20228;-72
2022/03/31 09:13:20;;;;;;;4.23;3.83;;;;;;;;;;6098721;29;20244;-78
2022/03/31 09:16:44;;;;;;;4.53;3.63;;;;;;;;;;6099229;29;20235;-69
2022/03/31 09:20:06;;;;;;;4.03;3.73;;;;;;;;;;6089923;29;20244;-71
2022/03/31 09:23:29;;;;;;;3.97;3.23;;;;;;;;;;6111008;29;20267;-77
2022/03/31 09:26:51;;;;;;;4.23;3.53;;;;;;;;;;6102326;29;20267;-78
2022/03/31 09:30:13;;;;;;;3.77;3.40;;;;;;;;;;6102234;29;20410;-74
2022/03/31 09:33:39;;;;;;;4.13;3.37;;;;;;;;;;6106240;29;20315;-77
2022/03/31 09:37:00;;;;;;;3.57;3.17;;;;;;;;;;6102086;29;20255;-75
2022/03/31 09:40:21;;;;;;;4.67;4.17;;;;;;;;;;6103052;29;20347;-74
2022/03/31 09:43:42;;;;;;;4.03;3.73;;;;;;;;;;6109953;29;20239;-75
2022/03/31 09:47:03;;;;;;;5.10;3.33;;;;;;;;;;6093311;29;20232;-74
2022/03/31 09:50:33;;;;;;;4.77;3.70;;;;;;;;;;6097259;29;21712;-77
2022/03/31 09:54:02;;;;;;;3.37;3.10;;;;;;;;;;6085319;29;20243;-77
2022/03/31 09:57:23;;;;;;;5.07;3.30;;;;;;;;;;6091846;29;20240;-73
2022/03/31 10:00:44;;;;;;;4.07;3.70;;;;;;;;;;6101177;29;20563;-77
2022/03/31 10:04:06;;;;;;;3.70;3.27;;;;;;;;;;6100982;29;20236;-76
2022/03/31 10:07:30;;;;;;;4.83;3.47;;;;;;;;;;6102791;29;20247;-72
2022/03/31 10:10:52;;;;;;;3.33;3.03;;;;;;;;;;6099765;29;20760;-79
2022/03/31 10:14:26;;;;;;;4.13;3.73;;;;;;;;;;6104150;29;20239;-80
2022/03/31 10:17:48;;;;;;;5.03;4.53;;;;;;;;;;6107234;29;20232;-79
2022/03/31 10:21:09;;;;;;;7.03;6.43;;;;;;;;;;6101797;29;20232;-77
2022/03/31 10:24:44;;;;;;;4.40;3.73;;;;;;;;;;6110410;29;20690;-73
2022/03/31 10:28:11;;;;;;;5.43;4.23;;;;;;;;;;6113307;29;20232;-74
2022/03/31 10:31:36;;;;;;;3.30;3.00;;;;;;;;;;6107563;29;20240;-75
2022/03/31 10:34:57;;;;;;;3.90;3.53;;;;;;;;;;6100901;29;20248;-76
2022/03/31 10:38:19;;;;;;;4.83;3.07;;;;;;;;;;6094685;29;20244;-76
2022/03/31 10:41:42;;;;;;;3.43;2.70;;;;;;;;;;6085043;29;20271;-76
2022/03/31 10:45:05;;;;;;;3.30;3.00;;;;;;;;;;6101138;29;20323;-75
2022/03/31 10:48:27;;;;;;;3.67;3.30;;;;;;;;;;6106897;29;20236;-74
2022/03/31 10:51:48;;;;;;;3.43;3.13;;;;;;;;;;6092551;29;20235;-75
2022/03/31 10:55:13;;;;;;;4.10;3.23;;;;;;;;;;6106386;29;20240;-76
2022/03/31 10:58:35;;;;;;;3.17;2.87;;;;;;;;;;6108861;29;20232;-75
2022/03/31 11:01:56;;;;;;;3.63;3.30;;;;;;;;;;6095851;29;20553;-75
2022/03/31 11:05:18;;;;;;;4.40;3.10;;;;;;;;;;6102162;29;20235;-75
2022/03/31 11:08:42;;;;;;;5.47;2.40;;;;;;;;;;6100923;29;20239;-74
2022/03/31 11:12:06;;;;;;;2.40;2.03;;;;;;;;;;6099992;29;20284;-75
2022/03/31 11:15:29;;;;;;;3.63;2.40;;;;;;;;;;6099614;29;20255;-73
2022/03/31 11:18:53;;;;;;;2.67;2.20;;;;;;;;;;6105228;29;20239;-77
2022/03/31 11:22:19;;;;;;;2.23;2.07;;;;;;;;;;6106282;29;20240;-72
2022/03/31 11:25:44;;;;;;;2.27;2.07;;;;;;;;;;6104689;29;20235;-72
2022/03/31 11:29:11;;;;;;;2.10;1.90;;;;;;;;;;6098512;29;20227;-76
2022/03/31 11:32:34;;;;;;;3.37;1.87;;;;;;;;;;6087855;29;20227;-70
2022/03/31 11:35:54;;;;;;;2.00;1.80;;;;;;;;;;6101965;29;20259;-71
2022/03/31 11:39:19;;;;;;;2.90;1.90;;;;;;;;;;6100704;29;20231;-73
2022/03/31 11:42:44;;;;;;;3.77;2.17;;;;;;;;;;6101125;29;20236;-71
2022/03/31 11:46:05;;;;;;;2.23;2.03;;;;;;;;;;6099493;29;20239;-73
2022/03/31 11:49:28;;;;;;;2.40;2.20;;;;;;;;;;6096424;29;20243;-71
2022/03/31 11:52:50;;;;;;;3.20;2.07;;;;;;;;;;6095310;29;20232;-70
2022/03/31 11:56:16;;;;;;;2.27;1.30;;;;;;;;;;6101419;29;20251;-72
2022/03/31 11:59:38;;;;;;;1.70;1.60;;;;;;;;;;6101199;29;20708;-75
2022/03/31 12:03:01;;;;;;;2.87;2.07;;;;;;;;;;6105730;29;21118;-74
2022/03/31 12:06:24;;;;;;;1.83;1.73;;;;;;;;;;6104560;29;20334;-72
2022/03/31 12:09:46;;;;;;;3.77;2.20;;;;;;;;;;6105862;29;20553;-74
2022/03/31 12:13:06;;;;;;;4.27;2.40;;;;;;;;;;6090215;29;20221;-72
2022/03/31 12:16:27;;;;;;;4.70;4.30;;;;;;;;;;6101180;29;20404;-74
2022/03/31 12:19:48;;;;;;;3.00;2.10;;;;;;;;;;6109143;29;20255;-79
2022/03/31 12:23:21;;;;;;;1.87;1.70;;;;;;;;;;6105423;29;20236;-78
2022/03/31 12:26:54;;;;;;;3.33;2.60;;;;;;;;;;6101761;29;20224;-76
2022/03/31 12:30:15;;;;;;;2.80;1.60;;;;;;;;;;6097194;29;20629;-71
2022/03/31 12:33:41;;;;;;;2.17;1.63;;;;;;;;;;6104733;29;20246;-72
2022/03/31 12:37:03;;;;;;;8.00;7.30;;;;;;;;;;6111044;29;20508;-70
2022/03/31 12:40:25;;;;;;;2.57;2.37;;;;;;;;;;6104084;29;20227;-70
2022/03/31 12:44:01;;;;;;;2.10;2.00;;;;;;;;;;6104117;29;20905;-67
2022/03/31 12:47:24;;;;;;;2.77;1.90;;;;;;;;;;6102739;29;20244;-71
2022/03/31 12:50:45;;;;;;;2.73;1.53;;;;;;;;;;6102987;29;20228;-72
2022/03/31 12:54:06;;;;;;;3.00;1.70;;;;;;;;;;6107344;29;20243;-72
2022/03/31 12:57:29;;;;;;;1.97;1.63;;;;;;;;;;6104748;29;20263;-72
2022/03/31 13:00:53;;;;;;;2.93;2.30;;;;;;;;;;6104605;29;20240;-71
2022/03/31 13:04:14;;;;;;;2.30;2.03;;;;;;;;;;6104185;29;20346;-73
2022/03/31 13:07:35;;;;;;;2.63;1.83;;;;;;;;;;6104888;29;20240;-73
2022/03/31 13:10:58;;;;;;;1.60;1.50;;;;;;;;;;6107715;29;20637;-74
2022/03/31 13:14:20;;;;;;;1.50;1.40;;;;;;;;;;6104463;29;20629;-73
2022/03/31 13:17:44;;;;;;;1.90;1.37;;;;;;;;;;6100180;29;20602;-70
2022/03/31 13:21:06;;;;;;;1.10;1.00;;;;;;;;;;6098046;29;20255;-72
2022/03/31 13:24:27;;;;;;;1.37;1.27;;;;;;;;;;6106819;29;20266;-71
2022/03/31 13:27:48;;;;;;;2.70;1.50;;;;;;;;;;6102753;29;20521;-73
2022/03/31 13:31:10;;;;;;;1.67;1.37;;;;;;;;;;6097335;29;20236;-71
2022/03/31 13:34:32;;;;;;;2.10;1.50;;;;;;;;;;6104752;29;20233;-70
2022/03/31 13:37:55;;;;;;;1.03;0.93;;;;;;;;;;6105040;29;20220;-73
2022/03/31 13:41:16;;;;;;;1.90;1.20;;;;;;;;;;6101109;29;20232;-73
2022/03/31 13:44:37;;;;;;;1.60;1.43;;;;;;;;;;6100271;29;20231;-72
2022/03/31 13:48:00;;;;;;;3.90;1.40;;;;;;;;;;6098804;29;20236;-70
2022/03/31 13:51:21;;;;;;;2.80;1.53;;;;;;;;;;6102424;29;20255;-74
2022/03/31 13:54:42;;;;;;;1.43;1.23;;;;;;;;;;6101439;29;20232;-75
2022/03/31 14:01:42;;;;;;;1.30;1.20;;;;;;;;;;6105229;29;20681;-79
2022/03/31 14:05:05;;;;;;;1.30;1.20;;;;;;;;;;6092015;29;20259;-75
2022/03/31 14:08:25;;;;;;;2.00;1.10;;;;;;;;;;6105106;29;20698;-75
2022/03/31 14:11:47;;;;;;;4.10;1.00;;;;;;;;;;6091839;29;20244;-74
2022/03/31 14:15:09;;;;;;;4.50;1.10;;;;;;;;;;6095265;29;20236;-74
2022/03/31 14:18:31;;;;;;;5.70;1.27;;;;;;;;;;6092774;29;20241;-76
2022/03/31 14:21:53;;;;;;;0.97;0.90;;;;;;;;;;6104147;29;20251;-76
2022/03/31 14:25:14;;;;;;;2.43;1.17;;;;;;;;;;6106703;29;20255;-79
2022/03/31 14:28:37;;;;;;;1.17;0.97;;;;;;;;;;6110617;29;20239;-76
2022/03/31 14:31:58;;;;;;;1.13;1.07;;;;;;;;;;6116384;29;20227;-78
2022/03/31 14:35:19;;;;;;;1.77;1.13;;;;;;;;;;6097471;29;20835;-77
2022/03/31 14:38:42;;;;;;;1.50;1.00;;;;;;;;;;6111453;29;20231;-78
2022/03/31 14:42:04;;;;;;;1.40;0.90;;;;;;;;;;6083848;29;20815;-76
2022/03/31 14:45:25;;;;;;;2.03;1.27;;;;;;;;;;6108946;29;20235;-77
2022/03/31 14:48:46;;;;;;;1.23;1.13;;;;;;;;;;6110142;29;20308;-74
2022/03/31 14:52:07;;;;;;;3.50;1.00;;;;;;;;;;6112985;29;20235;-76
2022/03/31 14:55:30;;;;;;;2.60;1.20;;;;;;;;;;6112452;29;20232;-78
2022/03/31 14:58:51;;;;;;;1.60;1.50;;;;;;;;;;6101208;29;20567;-78
2022/03/31 15:02:12;;;;;;;1.60;1.37;;;;;;;;;;6115862;29;20232;-77
2022/03/31 15:05:34;;;;;;;4.63;1.23;;;;;;;;;;6108202;29;20231;-79
2022/03/31 15:08:55;;;;;;;2.03;1.20;;;;;;;;;;6112262;29;21156;-77
2022/03/31 15:15:56;;;;;;;2.00;1.07;;;;;;;;;;6111442;29;20231;-79
2022/03/31 15:19:17;;;;;;;2.17;1.33;;;;;;;;;;6114608;29;20231;-77
2022/03/31 15:22:38;;;;;;;0.80;0.80;;;;;;;;;;6119213;29;20231;-78
2022/03/31 15:25:59;;;;;;;3.97;1.27;;;;;;;;;;6116029;29;20236;-77
2022/03/31 15:29:21;;;;;;;2.87;1.10;;;;;;;;;;6114410;29;20236;-80
2022/03/31 15:32:43;;;;;;;2.40;1.33;;;;;;;;;;6112433;29;20240;-77
2022/03/31 15:36:04;;;;;;;1.77;1.00;;;;;;;;;;6100592;29;20351;-80
2022/03/31 15:39:25;;;;;;;1.60;1.23;;;;;;;;;;6103946;29;20269;-78
2022/03/31 15:42:46;;;;;;;1.70;1.47;;;;;;;;;;6104380;29;20236;-78
2022/03/31 15:46:10;;;;;;;4.03;1.80;;;;;;;;;;6109988;29;20235;-77
2022/03/31 15:49:30;;;;;;;2.37;1.10;;;;;;;;;;6104414;29;20505;-79
2022/03/31 15:52:51;;;;;;;3.07;1.37;;;;;;;;;;6114807;29;20240;-79
2022/03/31 15:56:12;;;;;;;2.73;0.93;;;;;;;;;;6108270;29;20250;-79
2022/03/31 15:59:34;;;;;;;1.23;1.13;;;;;;;;;;6109345;29;21299;-79
2022/03/31 16:02:57;;;;;;;2.40;1.30;;;;;;;;;;6112179;29;20243;-78
2022/03/31 16:06:18;;;;;;;1.67;1.30;;;;;;;;;;6115775;29;20227;-80
2022/03/31 16:09:39;;;;;;;3.40;1.37;;;;;;;;;;6112459;29;20228;-76
2022/03/31 16:13:00;;;;;;;2.20;1.50;;;;;;;;;;6118957;29;20232;-78
2022/03/31 16:16:21;;;;;;;1.20;0.87;;;;;;;;;;6114198;29;20267;-77
2022/03/31 16:19:43;;;;;;;1.60;0.80;;;;;;;;;;6118708;29;20231;-78
2022/03/31 16:26:43;;;;;;;2.60;1.10;;;;;;;;;;6114354;29;20236;-78
2022/03/31 16:30:06;;;;;;;0.97;0.90;;;;;;;;;;6112136;29;20220;-79
2022/03/31 16:33:27;;;;;;;1.43;1.20;;;;;;;;;;6115694;29;20243;-78
2022/03/31 16:36:49;;;;;;;1.37;1.27;;;;;;;;;;6115863;29;20240;-80
2022/03/31 16:40:12;;;;;;;1.03;1.00;;;;;;;;;;6109405;29;20602;-77
2022/03/31 16:43:33;;;;;;;3.20;1.07;;;;;;;;;;6116100;29;20311;-77
2022/03/31 16:46:55;;;;;;;1.80;1.00;;;;;;;;;;6112114;29;20224;-78
2022/03/31 16:50:16;;;;;;;1.37;1.27;;;;;;;;;;6112971;29;20759;-80
2022/03/31 16:53:38;;;;;;;1.00;0.70;;;;;;;;;;6118655;29;20228;-78
2022/03/31 16:56:59;;;;;;;2.97;2.07;;;;;;;;;;6114680;29;20224;-78
2022/03/31 17:00:20;;;;;;;10.17;1.80;;;;;;;;;;6114443;29;20311;-80
2022/03/31 17:03:41;;;;;;;2.20;1.00;;;;;;;;;;6115921;29;20227;-80
2022/03/31 17:07:03;;;;;;;1.03;0.90;;;;;;;;;;6118315;29;20232;-81
2022/03/31 17:10:26;;;;;;;2.30;1.80;;;;;;;;;;6119660;29;20567;-79
2022/03/31 17:13:47;;;;;;;3.17;1.67;;;;;;;;;;6116084;29;20244;-80
2022/03/31 17:17:08;;;;;;;1.67;1.50;;;;;;;;;;6116129;29;20231;-79
2022/03/31 17:20:29;;;;;;;1.20;1.10;;;;;;;;;;6118534;29;20495;-80
2022/03/31 17:23:51;;;;;;;1.27;1.10;;;;;;;;;;6113647;29;20227;-79
2022/03/31 17:27:14;;;;;;;2.60;1.53;;;;;;;;;;6120558;29;20248;-81
2022/03/31 17:30:35;;;;;;;1.63;1.10;;;;;;;;;;6100061;29;20417;-79
2022/03/31 17:33:56;;;;;;;1.00;0.90;;;;;;;;;;6118056;29;20307;-77
2022/03/31 17:37:17;;;;;;;2.93;0.97;;;;;;;;;;6448424;22;20330;-82
2022/03/31 17:40:39;;;;;;;1.63;1.13;;;;;;;;;;6160626;28;20230;-76
2022/03/31 17:44:01;;;;;;;1.43;1.00;;;;;;;;;;6152625;28;20231;-78
2022/03/31 17:47:22;;;;;;;1.57;1.00;;;;;;;;;;6154909;28;20257;-78
2022/03/31 17:50:43;;;;;;;1.87;1.27;;;;;;;;;;6155474;28;20509;-80
2022/03/31 17:54:06;;;;;;;3.47;1.83;;;;;;;;;;6137628;28;20524;-79
2022/03/31 17:57:27;;;;;;;2.53;1.47;;;;;;;;;;6149814;28;20262;-80
2022/03/31 18:00:51;;;;;;;1.40;1.30;;;;;;;;;;6155565;28;20230;-82
2022/03/31 18:04:12;;;;;;;4.17;1.53;;;;;;;;;;6151444;28;20226;-82
2022/03/31 18:07:33;;;;;;;1.50;1.27;;;;;;;;;;6155829;28;20239;-81
2022/03/31 18:10:54;;;;;;;3.03;1.50;;;;;;;;;;6155748;28;20683;-80
2022/03/31 18:14:15;;;;;;;3.10;0.87;;;;;;;;;;6147454;28;20238;-79
2022/03/31 18:17:37;;;;;;;1.80;1.20;;;;;;;;;;6152821;28;20724;-81
2022/03/31 18:20:58;;;;;;;0.93;0.93;;;;;;;;;;6160084;28;20219;-79
2022/03/31 18:24:20;;;;;;;1.87;1.10;;;;;;;;;;6131043;28;20325;-73
2022/03/31 18:27:41;;;;;;;1.80;1.37;;;;;;;;;;6159451;28;20503;-75
2022/03/31 18:34:42;;;;;;;0.70;0.70;;;;;;;;;;6155985;28;20234;-74
2022/03/31 18:38:04;;;;;;;1.37;1.10;;;;;;;;;;6162579;28;20238;-74
2022/03/31 18:41:26;;;;;;;2.70;1.93;;;;;;;;;;6155522;28;20230;-73
2022/03/31 18:44:47;;;;;;;1.17;1.07;;;;;;;;;;6159404;28;20230;-74
2022/03/31 18:48:10;;;;;;;3.23;1.50;;;;;;;;;;6151443;28;20230;-75
2022/03/31 18:51:34;;;;;;;2.53;1.10;;;;;;;;;;6154695;28;20229;-74
2022/03/31 18:54:57;;;;;;;2.97;1.43;;;;;;;;;;6148561;28;20241;-85
2022/03/31 18:58:19;;;;;;;1.50;1.40;;;;;;;;;;6158828;28;20234;-87
2022/03/31 19:01:45;;;;;;;1.50;1.40;;;;;;;;;;6158322;28;20226;-83
2022/03/31 19:05:08;;;;;;;1.20;1.10;;;;;;;;;;6159084;28;20234;-86
2022/03/31 19:08:30;;;;;;;1.33;1.00;;;;;;;;;;6150048;28;20699;-77
2022/03/31 19:11:52;;;;;;;1.10;1.00;;;;;;;;;;6153799;28;20222;-75
2022/03/31 19:15:12;;;;;;;1.70;1.43;;;;;;;;;;6146581;28;20222;-75
2022/03/31 19:18:34;;;;;;;1.87;1.40;;;;;;;;;;6155610;28;20252;-77
2022/03/31 19:21:55;;;;;;;1.80;1.50;;;;;;;;;;6140245;28;20628;-80
2022/03/31 19:25:18;;;;;;;1.20;1.10;;;;;;;;;;6151214;28;20234;-75
2022/03/31 19:28:38;;;;;;;4.73;1.73;;;;;;;;;;6133769;28;20257;-75
2022/03/31 19:31:59;;;;;;;2.00;1.80;;;;;;;;;;6144382;28;20239;-74
2022/03/31 19:35:21;;;;;;;2.57;1.40;;;;;;;;;;6151766;28;20218;-74
2022/03/31 19:38:42;;;;;;;1.33;1.17;;;;;;;;;;6153027;28;20238;-76
2022/03/31 19:42:05;;;;;;;1.33;1.00;;;;;;;;;;6160989;28;20503;-75
2022/03/31 19:45:27;;;;;;;1.80;1.20;;;;;;;;;;6153770;28;20230;-74
2022/03/31 19:48:49;;;;;;;2.10;1.33;;;;;;;;;;6152212;28;20226;-75
2022/03/31 19:52:10;;;;;;;4.90;1.63;;;;;;;;;;6152453;28;20632;-75
2022/03/31 19:55:31;;;;;;;1.47;1.17;;;;;;;;;;6154279;28;20271;-76
2022/03/31 19:58:54;;;;;;;2.20;1.70;;;;;;;;;;6157379;28;20332;-75
2022/03/31 20:02:14;;;;;;;1.87;1.20;;;;;;;;;;6156044;28;20242;-74
2022/03/31 20:05:35;;;;;;;1.33;1.23;;;;;;;;;;6156486;28;20242;-76
2022/03/31 20:08:56;;;;;;;1.57;1.10;;;;;;;;;;6159372;28;20290;-74
2022/03/31 20:12:17;;;;;;;2.03;1.90;;;;;;;;;;6161831;28;20239;-75
2022/03/31 20:15:43;;;;;;;2.43;1.33;;;;;;;;;;6145206;28;20242;-75
2022/03/31 20:19:04;;;;;;;2.53;1.40;;;;;;;;;;6163248;28;20736;-75
2022/03/31 20:22:24;;;;;;;2.07;1.93;;;;;;;;;;6168716;28;20313;-73
2022/03/31 20:25:47;;;;;;;1.60;1.47;;;;;;;;;;6161305;28;20262;-75
2022/03/31 20:29:11;;;;;;;1.60;1.50;;;;;;;;;;6158410;28;20250;-75